Parma — V2OZ9 — position and weather

sailwx.info

Track history (hours):
 
Tides and Currents Weather Stations Pressure Air Temp Water Temp Dewpoint Dewpoint Depression Visibility Wind Speed Wind Dir Waves Ship Positions

Parma

Last reported at 2016-May-23 06:09 UTC. Time now 2016-May-25 03:23 UTC.
Position N 37°18' E 023°58'.

MMSI: 279073176.

Date/timePositionNaut miles runAvg speedWind from/ knotsBaromVisibWave heightAir tempDewpointWater temp
2016-May-23 06:09N 37°18' E 023°58'6 8.8
2016-May-23 05:31N 37°13' E 023°55'379 8.3
2016-May-21 07:33N 37°48' E 015°59'10 9.6
2016-May-21 06:33N 37°51' E 015°47'9 9.3
2016-May-21 05:33N 37°55' E 015°37'1010.4
2016-May-21 04:33N 38°05' E 015°35'10 9.5
2016-May-21 03:33N 38°15' E 015°37'6 6.4
2016-May-21 02:33N 38°21' E 015°37'10 9.8
2016-May-21 01:33N 38°28' E 015°28'9 9.5
2016-May-21 00:33N 38°35' E 015°20'9 8.8
2016-May-20 23:33N 38°41' E 015°12'  
2016-May-18 12:20N 43°17' E 004°60'7 8.9
2016-May-18 11:33N 43°23' E 004°56'3 0.5
2016-May-18 05:31N 43°26' E 004°53'0 0.0
2016-May-18 04:31N 43°26' E 004°53'0 0.0
2016-May-18 03:31N 43°26' E 004°53'0 0.0
2016-May-18 02:31N 43°26' E 004°53'0 0.0
2016-May-18 01:31N 43°26' E 004°53'0 0.0
2016-May-18 00:28N 43°26' E 004°53'0 0.0
2016-May-17 23:28N 43°26' E 004°53'0 0.0
2016-May-17 22:31N 43°26' E 004°53'0 0.0
2016-May-17 21:31N 43°26' E 004°53'0 0.0
2016-May-17 20:31N 43°26' E 004°53'0 0.0
2016-May-17 19:16N 43°26' E 004°53'0 0.0
2016-May-17 18:31N 43°26' E 004°53'0 0.0
2016-May-17 17:31N 43°26' E 004°53'0 0.0
2016-May-17 16:31N 43°26' E 004°53'0 0.0
2016-May-17 15:31N 43°26' E 004°53'0 0.0
2016-May-17 14:31N 43°26' E 004°53'0 0.0
2016-May-17 13:16N 43°26' E 004°53'0 0.0
2016-May-17 11:31N 43°26' E 004°53'0 0.0
2016-May-17 10:31N 43°26' E 004°53'0 0.0
2016-May-17 09:31N 43°26' E 004°53'0 0.0
2016-May-17 08:31N 43°26' E 004°53'0 0.0
2016-May-17 07:31N 43°26' E 004°53'0 0.0
2016-May-17 06:31N 43°26' E 004°53'0 0.0
2016-May-17 05:28N 43°26' E 004°53'0 0.0
2016-May-17 04:25N 43°26' E 004°53'0 0.0
2016-May-17 03:31N 43°26' E 004°53'0 0.0
2016-May-17 02:31N 43°26' E 004°53'0 0.0
2016-May-17 01:28N 43°26' E 004°53'0 0.0
2016-May-17 00:16N 43°26' E 004°53'0 0.0
2016-May-16 23:19N 43°26' E 004°53'0 0.0
2016-May-16 22:31N 43°26' E 004°53'0 0.0
2016-May-16 21:31N 43°26' E 004°53'0 0.0
2016-May-16 20:31N 43°26' E 004°53'0 0.0
2016-May-16 19:22N 43°26' E 004°53'0 0.0
2016-May-16 18:28N 43°26' E 004°53'0 0.0
2016-May-16 17:31N 43°26' E 004°53'0 0.0
2016-May-16 16:28N 43°26' E 004°53'0 0.0
2016-May-16 15:25N 43°26' E 004°53'0 0.0
2016-May-16 14:25N 43°26' E 004°53'0 0.0
2016-May-16 13:28N 43°26' E 004°53'0 0.0
2016-May-16 12:31N 43°26' E 004°53'0 0.0
2016-May-16 11:25N 43°26' E 004°53'0 0.0
2016-May-16 10:31N 43°26' E 004°53'0 0.0
2016-May-16 09:31N 43°26' E 004°53'0 0.0
2016-May-16 08:31N 43°26' E 004°53'0 0.0
2016-May-16 07:22N 43°26' E 004°53'0 0.0
2016-May-16 06:28N 43°26' E 004°53'0 0.0
2016-May-16 05:31N 43°26' E 004°53'0 0.0
2016-May-16 04:28N 43°26' E 004°53'0 0.0
2016-May-16 03:31N 43°26' E 004°53'0 0.0
2016-May-16 02:22N 43°26' E 004°53'0 0.0
2016-May-16 01:31N 43°26' E 004°53'0 0.0
2016-May-16 00:25N 43°26' E 004°53'0 0.0
2016-May-15 23:19N 43°26' E 004°53'0 0.0
2016-May-15 22:31N 43°26' E 004°53'0 0.0
2016-May-15 21:31N 43°26' E 004°53'0 0.0
2016-May-15 20:25N 43°26' E 004°53'0 0.0
2016-May-15 19:31N 43°26' E 004°53'0 0.0
2016-May-15 18:25N 43°26' E 004°53'0 0.0
2016-May-15 17:22N 43°26' E 004°53'0 0.0
2016-May-15 16:24N 43°26' E 004°53'0 0.0
2016-May-15 15:24N 43°26' E 004°53'0 0.0
2016-May-15 14:33N 43°26' E 004°53'0 0.0
2016-May-15 13:33N 43°26' E 004°53'0 0.0
2016-May-15 12:33N 43°26' E 004°53'0 0.0
2016-May-15 11:33N 43°26' E 004°53'0 0.0
2016-May-15 10:24N 43°26' E 004°53'0 0.0
2016-May-15 09:33N 43°26' E 004°53'0 0.0
2016-May-15 08:27N 43°26' E 004°53'0 0.0
2016-May-15 07:33N 43°26' E 004°53'0 0.0
2016-May-15 06:15N 43°26' E 004°53'0 0.0
2016-May-15 05:30N 43°26' E 004°53'0 0.0
2016-May-15 04:30N 43°26' E 004°53'0 0.0
2016-May-15 03:30N 43°26' E 004°53'0 0.2
2016-May-15 02:33N 43°25' E 004°53'2 1.6
2016-May-15 01:32N 43°25' E 004°55'0 0.0
2016-May-15 00:32N 43°25' E 004°55'0 0.0
2016-May-14 23:32N 43°25' E 004°55'0 0.0
2016-May-14 22:32N 43°25' E 004°55'0 0.0
2016-May-14 21:32N 43°25' E 004°55'0 0.0
2016-May-14 20:32N 43°25' E 004°55'0 0.0
2016-May-14 19:32N 43°25' E 004°55'0 0.0
2016-May-14 18:32N 43°25' E 004°55'0 0.0
2016-May-14 17:26N 43°25' E 004°55'0 0.1
2016-May-14 16:33N 43°25' E 004°55'8 7.8
2016-May-14 15:33N 43°18' E 004°60'160 6.1
2016-May-13 13:33N 44°08' E 008°30'1010.2
2016-May-13 12:33N 44°18' E 008°31'  
Track history (hours):
 
Tides and Currents Weather Stations Pressure Air Temp Water Temp Dewpoint Dewpoint Depression Visibility Wind Speed Wind Dir Waves Ship Positions

Parma

Last reported at 2016-May-23 06:09 UTC. Time now 2016-May-25 03:23 UTC.
Position N 37°18' E 023°58'.

MMSI: 279073176.

Date/timePositionNaut miles runAvg speedWind from/ knotsBaromVisibWave heightAir tempDewpointWater temp
2016-May-23 06:09N 37°18' E 023°58'6 8.8
2016-May-23 05:31N 37°13' E 023°55'379 8.3
2016-May-21 07:33N 37°48' E 015°59'10 9.6
2016-May-21 06:33N 37°51' E 015°47'9 9.3
2016-May-21 05:33N 37°55' E 015°37'1010.4
2016-May-21 04:33N 38°05' E 015°35'10 9.5
2016-May-21 03:33N 38°15' E 015°37'6 6.4
2016-May-21 02:33N 38°21' E 015°37'10 9.8
2016-May-21 01:33N 38°28' E 015°28'9 9.5
2016-May-21 00:33N 38°35' E 015°20'9 8.8
2016-May-20 23:33N 38°41' E 015°12'  
2016-May-18 12:20N 43°17' E 004°60'7 8.9
2016-May-18 11:33N 43°23' E 004°56'3 0.5
2016-May-18 05:31N 43°26' E 004°53'0 0.0
2016-May-18 04:31N 43°26' E 004°53'0 0.0
2016-May-18 03:31N 43°26' E 004°53'0 0.0
2016-May-18 02:31N 43°26' E 004°53'0 0.0
2016-May-18 01:31N 43°26' E 004°53'0 0.0
2016-May-18 00:28N 43°26' E 004°53'0 0.0
2016-May-17 23:28N 43°26' E 004°53'0 0.0
2016-May-17 22:31N 43°26' E 004°53'0 0.0
2016-May-17 21:31N 43°26' E 004°53'0 0.0
2016-May-17 20:31N 43°26' E 004°53'0 0.0
2016-May-17 19:16N 43°26' E 004°53'0 0.0
2016-May-17 18:31N 43°26' E 004°53'0 0.0
2016-May-17 17:31N 43°26' E 004°53'0 0.0
2016-May-17 16:31N 43°26' E 004°53'0 0.0
2016-May-17 15:31N 43°26' E 004°53'0 0.0
2016-May-17 14:31N 43°26' E 004°53'0 0.0
2016-May-17 13:16N 43°26' E 004°53'0 0.0
2016-May-17 11:31N 43°26' E 004°53'0 0.0
2016-May-17 10:31N 43°26' E 004°53'0 0.0
2016-May-17 09:31N 43°26' E 004°53'0 0.0
2016-May-17 08:31N 43°26' E 004°53'0 0.0
2016-May-17 07:31N 43°26' E 004°53'0 0.0
2016-May-17 06:31N 43°26' E 004°53'0 0.0
2016-May-17 05:28N 43°26' E 004°53'0 0.0
2016-May-17 04:25N 43°26' E 004°53'0 0.0
2016-May-17 03:31N 43°26' E 004°53'0 0.0
2016-May-17 02:31N 43°26' E 004°53'0 0.0
2016-May-17 01:28N 43°26' E 004°53'0 0.0
2016-May-17 00:16N 43°26' E 004°53'0 0.0
2016-May-16 23:19N 43°26' E 004°53'0 0.0
2016-May-16 22:31N 43°26' E 004°53'0 0.0
2016-May-16 21:31N 43°26' E 004°53'0 0.0
2016-May-16 20:31N 43°26' E 004°53'0 0.0
2016-May-16 19:22N 43°26' E 004°53'0 0.0
2016-May-16 18:28N 43°26' E 004°53'0 0.0
2016-May-16 17:31N 43°26' E 004°53'0 0.0
2016-May-16 16:28N 43°26' E 004°53'0 0.0
2016-May-16 15:25N 43°26' E 004°53'0 0.0
2016-May-16 14:25N 43°26' E 004°53'0 0.0
2016-May-16 13:28N 43°26' E 004°53'0 0.0
2016-May-16 12:31N 43°26' E 004°53'0 0.0
2016-May-16 11:25N 43°26' E 004°53'0 0.0
2016-May-16 10:31N 43°26' E 004°53'0 0.0
2016-May-16 09:31N 43°26' E 004°53'0 0.0
2016-May-16 08:31N 43°26' E 004°53'0 0.0
2016-May-16 07:22N 43°26' E 004°53'0 0.0
2016-May-16 06:28N 43°26' E 004°53'0 0.0
2016-May-16 05:31N 43°26' E 004°53'0 0.0
2016-May-16 04:28N 43°26' E 004°53'0 0.0
2016-May-16 03:31N 43°26' E 004°53'0 0.0
2016-May-16 02:22N 43°26' E 004°53'0 0.0
2016-May-16 01:31N 43°26' E 004°53'0 0.0
2016-May-16 00:25N 43°26' E 004°53'0 0.0
2016-May-15 23:19N 43°26' E 004°53'0 0.0
2016-May-15 22:31N 43°26' E 004°53'0 0.0
2016-May-15 21:31N 43°26' E 004°53'0 0.0
2016-May-15 20:25N 43°26' E 004°53'0 0.0
2016-May-15 19:31N 43°26' E 004°53'0 0.0
2016-May-15 18:25N 43°26' E 004°53'0 0.0
2016-May-15 17:22N 43°26' E 004°53'0 0.0
2016-May-15 16:24N 43°26' E 004°53'0 0.0
2016-May-15 15:24N 43°26' E 004°53'0 0.0
2016-May-15 14:33N 43°26' E 004°53'0 0.0
2016-May-15 13:33N 43°26' E 004°53'0 0.0
2016-May-15 12:33N 43°26' E 004°53'0 0.0
2016-May-15 11:33N 43°26' E 004°53'0 0.0
2016-May-15 10:24N 43°26' E 004°53'0 0.0
2016-May-15 09:33N 43°26' E 004°53'0 0.0
2016-May-15 08:27N 43°26' E 004°53'0 0.0
2016-May-15 07:33N 43°26' E 004°53'0 0.0
2016-May-15 06:15N 43°26' E 004°53'0 0.0
2016-May-15 05:30N 43°26' E 004°53'0 0.0
2016-May-15 04:30N 43°26' E 004°53'0 0.0
2016-May-15 03:30N 43°26' E 004°53'0 0.2
2016-May-15 02:33N 43°25' E 004°53'2 1.6
2016-May-15 01:32N 43°25' E 004°55'0 0.0
2016-May-15 00:32N 43°25' E 004°55'0 0.0
2016-May-14 23:32N 43°25' E 004°55'0 0.0
2016-May-14 22:32N 43°25' E 004°55'0 0.0
2016-May-14 21:32N 43°25' E 004°55'0 0.0
2016-May-14 20:32N 43°25' E 004°55'0 0.0
2016-May-14 19:32N 43°25' E 004°55'0 0.0
2016-May-14 18:32N 43°25' E 004°55'0 0.0
2016-May-14 17:26N 43°25' E 004°55'0 0.1
2016-May-14 16:33N 43°25' E 004°55'8 7.8
2016-May-14 15:33N 43°18' E 004°60'160 6.1
2016-May-13 13:33N 44°08' E 008°30'1010.2
2016-May-13 12:33N 44°18' E 008°31'  

Dump ship's entire track history